sensor_id;sensor_type;location;lat;lon;timestamp;temperature;humidity
17346;DHT22;8790;53.590;10.002;2023-06-26T00:01:30;22.90;99.90
17346;DHT22;8790;53.590;10.002;2023-06-26T00:04:02;22.90;99.90
17346;DHT22;8790;53.590;10.002;2023-06-26T00:06:34;22.90;99.90
17346;DHT22;8790;53.590;10.002;2023-06-26T00:09:06;22.90;99.90
17346;DHT22;8790;53.590;10.002;2023-06-26T00:11:38;22.80;99.90
17346;DHT22;8790;53.590;10.002;2023-06-26T00:14:11;22.80;99.90
17346;DHT22;8790;53.590;10.002;2023-06-26T00:16:42;22.90;99.90
17346;DHT22;8790;53.590;10.002;2023-06-26T00:19:14;22.80;99.90
17346;DHT22;8790;53.590;10.002;2023-06-26T00:21:46;22.80;99.90
17346;DHT22;8790;53.590;10.002;2023-06-26T00:24:18;22.80;99.90
17346;DHT22;8790;53.590;10.002;2023-06-26T00:26:50;22.80;99.90
17346;DHT22;8790;53.590;10.002;2023-06-26T00:29:23;22.80;99.90
17346;DHT22;8790;53.590;10.002;2023-06-26T00:31:55;22.70;99.90
17346;DHT22;8790;53.590;10.002;2023-06-26T00:34:27;22.70;99.90
17346;DHT22;8790;53.590;10.002;2023-06-26T00:36:59;22.70;99.90
17346;DHT22;8790;53.590;10.002;2023-06-26T00:39:31;22.70;99.90
17346;DHT22;8790;53.590;10.002;2023-06-26T00:42:03;22.60;99.90
17346;DHT22;8790;53.590;10.002;2023-06-26T00:44:36;22.60;99.90
17346;DHT22;8790;53.590;10.002;2023-06-26T00:47:08;22.60;99.90
17346;DHT22;8790;53.590;10.002;2023-06-26T00:49:40;22.60;99.90
17346;DHT22;8790;53.590;10.002;2023-06-26T00:52:12;22.60;99.90
17346;DHT22;8790;53.590;10.002;2023-06-26T00:54:44;22.50;99.90
17346;DHT22;8790;53.590;10.002;2023-06-26T00:57:16;22.50;99.90
17346;DHT22;8790;53.590;10.002;2023-06-26T00:59:49;22.50;99.90
17346;DHT22;8790;53.590;10.002;2023-06-26T01:02:21;22.60;99.90
17346;DHT22;8790;53.590;10.002;2023-06-26T01:04:54;22.50;99.90
17346;DHT22;8790;53.590;10.002;2023-06-26T01:07:26;22.50;99.90
17346;DHT22;8790;53.590;10.002;2023-06-26T01:09:58;22.40;99.90
17346;DHT22;8790;53.590;10.002;2023-06-26T01:12:30;22.40;99.90
17346;DHT22;8790;53.590;10.002;2023-06-26T01:15:05;22.40;99.90
17346;DHT22;8790;53.590;10.002;2023-06-26T01:17:37;22.40;99.90
17346;DHT22;8790;53.590;10.002;2023-06-26T01:20:10;22.40;99.90
17346;DHT22;8790;53.590;10.002;2023-06-26T01:22:47;22.30;99.90
17346;DHT22;8790;53.590;10.002;2023-06-26T01:25:29;22.30;99.90
17346;DHT22;8790;53.590;10.002;2023-06-26T01:28:11;22.20;99.90
17346;DHT22;8790;53.590;10.002;2023-06-26T01:30:45;22.20;99.90
17346;DHT22;8790;53.590;10.002;2023-06-26T01:33:17;22.30;99.90
17346;DHT22;8790;53.590;10.002;2023-06-26T01:35:50;22.30;99.90
17346;DHT22;8790;53.590;10.002;2023-06-26T01:38:22;22.20;99.90
17346;DHT22;8790;53.590;10.002;2023-06-26T01:40:54;22.20;99.90
17346;DHT22;8790;53.590;10.002;2023-06-26T01:43:43;22.20;99.90
17346;DHT22;8790;53.590;10.002;2023-06-26T01:46:24;22.10;99.90
17346;DHT22;8790;53.590;10.002;2023-06-26T01:49:02;22.10;99.90
17346;DHT22;8790;53.590;10.002;2023-06-26T01:51:41;22.10;99.90
17346;DHT22;8790;53.590;10.002;2023-06-26T01:54:18;22.10;99.90
17346;DHT22;8790;53.590;10.002;2023-06-26T01:56:52;22.10;99.90
17346;DHT22;8790;53.590;10.002;2023-06-26T01:59:28;22.10;99.90
17346;DHT22;8790;53.590;10.002;2023-06-26T02:02:06;22.10;99.90
17346;DHT22;8790;53.590;10.002;2023-06-26T02:04:40;22.10;99.90
17346;DHT22;8790;53.590;10.002;2023-06-26T02:07:11;22.10;99.90
17346;DHT22;8790;53.590;10.002;2023-06-26T02:09:43;22.10;99.90
17346;DHT22;8790;53.590;10.002;2023-06-26T02:12:15;22.10;99.90
17346;DHT22;8790;53.590;10.002;2023-06-26T02:14:48;22.00;99.90
17346;DHT22;8790;53.590;10.002;2023-06-26T02:17:21;22.00;99.90
17346;DHT22;8790;53.590;10.002;2023-06-26T02:19:53;22.00;99.90
17346;DHT22;8790;53.590;10.002;2023-06-26T02:22:25;22.00;99.90
17346;DHT22;8790;53.590;10.002;2023-06-26T02:24:59;22.00;99.90
17346;DHT22;8790;53.590;10.002;2023-06-26T02:27:30;22.00;99.90
17346;DHT22;8790;53.590;10.002;2023-06-26T02:30:04;22.00;99.90
17346;DHT22;8790;53.590;10.002;2023-06-26T02:32:36;22.00;99.90
17346;DHT22;8790;53.590;10.002;2023-06-26T02:35:08;22.00;99.90
17346;DHT22;8790;53.590;10.002;2023-06-26T02:37:46;22.00;99.90
17346;DHT22;8790;53.590;10.002;2023-06-26T02:40:18;22.00;99.90
17346;DHT22;8790;53.590;10.002;2023-06-26T02:42:50;22.00;99.90
17346;DHT22;8790;53.590;10.002;2023-06-26T02:45:24;22.00;99.90
17346;DHT22;8790;53.590;10.002;2023-06-26T02:47:56;22.00;99.90
17346;DHT22;8790;53.590;10.002;2023-06-26T02:50:28;22.00;99.90
17346;DHT22;8790;53.590;10.002;2023-06-26T02:53:12;22.00;99.90
17346;DHT22;8790;53.590;10.002;2023-06-26T02:55:46;22.00;99.90
17346;DHT22;8790;53.590;10.002;2023-06-26T02:58:20;21.90;99.90
17346;DHT22;8790;53.590;10.002;2023-06-26T03:00:54;21.90;99.90
17346;DHT22;8790;53.590;10.002;2023-06-26T03:03:27;21.90;99.90
17346;DHT22;8790;53.590;10.002;2023-06-26T03:05:59;21.90;99.90
17346;DHT22;8790;53.590;10.002;2023-06-26T03:08:31;21.90;99.90
17346;DHT22;8790;53.590;10.002;2023-06-26T03:11:03;21.90;99.90
17346;DHT22;8790;53.590;10.002;2023-06-26T03:13:36;21.90;99.90
17346;DHT22;8790;53.590;10.002;2023-06-26T03:16:09;21.90;99.90
17346;DHT22;8790;53.590;10.002;2023-06-26T03:18:40;21.90;99.90
17346;DHT22;8790;53.590;10.002;2023-06-26T03:21:12;21.90;99.90
17346;DHT22;8790;53.590;10.002;2023-06-26T03:23:44;21.90;99.90
17346;DHT22;8790;53.590;10.002;2023-06-26T03:26:16;21.80;99.90
17346;DHT22;8790;53.590;10.002;2023-06-26T03:28:49;21.80;99.90
17346;DHT22;8790;53.590;10.002;2023-06-26T03:31:22;21.80;99.90
17346;DHT22;8790;53.590;10.002;2023-06-26T03:33:54;21.80;99.90
17346;DHT22;8790;53.590;10.002;2023-06-26T03:36:26;21.90;99.90
17346;DHT22;8790;53.590;10.002;2023-06-26T03:38:57;21.80;99.90
17346;DHT22;8790;53.590;10.002;2023-06-26T03:41:30;21.80;99.90
17346;DHT22;8790;53.590;10.002;2023-06-26T03:44:02;21.80;99.90
17346;DHT22;8790;53.590;10.002;2023-06-26T03:46:42;21.90;99.90
17346;DHT22;8790;53.590;10.002;2023-06-26T03:49:14;21.80;99.90
17346;DHT22;8790;53.590;10.002;2023-06-26T03:51:47;21.80;99.90
17346;DHT22;8790;53.590;10.002;2023-06-26T03:54:19;21.80;99.90
17346;DHT22;8790;53.590;10.002;2023-06-26T03:56:52;21.70;99.90
17346;DHT22;8790;53.590;10.002;2023-06-26T03:59:25;21.70;99.90
17346;DHT22;8790;53.590;10.002;2023-06-26T04:01:58;21.70;99.90
17346;DHT22;8790;53.590;10.002;2023-06-26T04:04:30;21.80;99.90
17346;DHT22;8790;53.590;10.002;2023-06-26T04:07:03;21.70;99.90
17346;DHT22;8790;53.590;10.002;2023-06-26T04:09:35;21.70;99.90
17346;DHT22;8790;53.590;10.002;2023-06-26T04:12:07;21.70;99.90
17346;DHT22;8790;53.590;10.002;2023-06-26T04:14:39;21.80;99.90
17346;DHT22;8790;53.590;10.002;2023-06-26T04:17:12;21.80;99.90
17346;DHT22;8790;53.590;10.002;2023-06-26T04:19:44;21.70;99.90
17346;DHT22;8790;53.590;10.002;2023-06-26T04:22:15;21.70;99.90
17346;DHT22;8790;53.590;10.002;2023-06-26T04:24:47;21.70;99.90
17346;DHT22;8790;53.590;10.002;2023-06-26T04:27:19;21.70;99.90
17346;DHT22;8790;53.590;10.002;2023-06-26T04:29:51;21.80;99.90
17346;DHT22;8790;53.590;10.002;2023-06-26T04:32:24;21.80;99.90
17346;DHT22;8790;53.590;10.002;2023-06-26T04:34:56;21.90;99.90
17346;DHT22;8790;53.590;10.002;2023-06-26T04:37:27;21.80;99.90
17346;DHT22;8790;53.590;10.002;2023-06-26T04:39:59;21.90;99.90
17346;DHT22;8790;53.590;10.002;2023-06-26T04:42:31;21.90;99.90
17346;DHT22;8790;53.590;10.002;2023-06-26T04:45:03;21.90;99.90
17346;DHT22;8790;53.590;10.002;2023-06-26T04:47:36;21.80;99.90
17346;DHT22;8790;53.590;10.002;2023-06-26T04:50:08;21.90;99.90
17346;DHT22;8790;53.590;10.002;2023-06-26T04:52:39;21.90;99.90
17346;DHT22;8790;53.590;10.002;2023-06-26T04:55:11;21.90;99.90
17346;DHT22;8790;53.590;10.002;2023-06-26T04:57:43;22.00;99.90
17346;DHT22;8790;53.590;10.002;2023-06-26T05:00:15;22.00;99.90
17346;DHT22;8790;53.590;10.002;2023-06-26T05:02:48;22.00;99.90
17346;DHT22;8790;53.590;10.002;2023-06-26T05:05:20;22.10;99.90
17346;DHT22;8790;53.590;10.002;2023-06-26T05:07:53;22.10;99.90
17346;DHT22;8790;53.590;10.002;2023-06-26T05:10:25;22.10;99.90
17346;DHT22;8790;53.590;10.002;2023-06-26T05:12:57;22.10;99.90
17346;DHT22;8790;53.590;10.002;2023-06-26T05:15:28;22.10;99.90
17346;DHT22;8790;53.590;10.002;2023-06-26T05:18:02;22.10;99.90
17346;DHT22;8790;53.590;10.002;2023-06-26T05:20:34;22.10;99.90
17346;DHT22;8790;53.590;10.002;2023-06-26T05:23:06;22.10;99.90
17346;DHT22;8790;53.590;10.002;2023-06-26T05:25:38;22.20;99.90
17346;DHT22;8790;53.590;10.002;2023-06-26T05:28:11;22.20;99.90
17346;DHT22;8790;53.590;10.002;2023-06-26T05:30:46;22.20;99.90
17346;DHT22;8790;53.590;10.002;2023-06-26T05:33:21;22.30;99.90
17346;DHT22;8790;53.590;10.002;2023-06-26T05:35:55;22.30;99.90
17346;DHT22;8790;53.590;10.002;2023-06-26T05:38:27;22.30;99.90
17346;DHT22;8790;53.590;10.002;2023-06-26T05:40:59;22.30;99.90
17346;DHT22;8790;53.590;10.002;2023-06-26T05:43:31;22.40;99.90
17346;DHT22;8790;53.590;10.002;2023-06-26T05:46:03;22.40;99.90
17346;DHT22;8790;53.590;10.002;2023-06-26T05:48:36;22.50;99.90
17346;DHT22;8790;53.590;10.002;2023-06-26T05:51:09;22.50;99.90
17346;DHT22;8790;53.590;10.002;2023-06-26T05:53:41;22.50;99.90
17346;DHT22;8790;53.590;10.002;2023-06-26T05:56:13;22.50;99.90
17346;DHT22;8790;53.590;10.002;2023-06-26T05:58:46;22.60;99.90
17346;DHT22;8790;53.590;10.002;2023-06-26T06:01:17;22.60;99.90
17346;DHT22;8790;53.590;10.002;2023-06-26T06:03:51;22.60;99.90
17346;DHT22;8790;53.590;10.002;2023-06-26T06:06:23;22.70;99.90
17346;DHT22;8790;53.590;10.002;2023-06-26T06:08:55;22.70;99.90
17346;DHT22;8790;53.590;10.002;2023-06-26T06:11:26;22.70;99.90
17346;DHT22;8790;53.590;10.002;2023-06-26T06:13:58;22.80;99.90
17346;DHT22;8790;53.590;10.002;2023-06-26T06:16:30;22.80;99.90
17346;DHT22;8790;53.590;10.002;2023-06-26T06:19:03;22.80;99.90
17346;DHT22;8790;53.590;10.002;2023-06-26T06:21:37;22.80;99.90
17346;DHT22;8790;53.590;10.002;2023-06-26T06:24:09;22.90;99.90
17346;DHT22;8790;53.590;10.002;2023-06-26T06:26:42;23.00;99.90
17346;DHT22;8790;53.590;10.002;2023-06-26T06:29:13;23.00;99.90
17346;DHT22;8790;53.590;10.002;2023-06-26T06:31:45;23.00;99.90
17346;DHT22;8790;53.590;10.002;2023-06-26T06:34:19;23.00;99.90
17346;DHT22;8790;53.590;10.002;2023-06-26T06:36:50;23.00;99.90
17346;DHT22;8790;53.590;10.002;2023-06-26T06:39:22;23.10;99.90
17346;DHT22;8790;53.590;10.002;2023-06-26T06:41:54;23.10;99.90
17346;DHT22;8790;53.590;10.002;2023-06-26T06:44:26;23.10;99.90
17346;DHT22;8790;53.590;10.002;2023-06-26T06:46:58;23.20;99.90
17346;DHT22;8790;53.590;10.002;2023-06-26T06:49:31;23.20;99.90
17346;DHT22;8790;53.590;10.002;2023-06-26T06:52:03;23.30;99.90
17346;DHT22;8790;53.590;10.002;2023-06-26T06:54:50;23.30;99.90
17346;DHT22;8790;53.590;10.002;2023-06-26T06:57:23;23.30;99.90
17346;DHT22;8790;53.590;10.002;2023-06-26T06:59:54;23.30;99.90
17346;DHT22;8790;53.590;10.002;2023-06-26T07:02:26;23.40;99.90
17346;DHT22;8790;53.590;10.002;2023-06-26T07:04:59;23.40;99.90
17346;DHT22;8790;53.590;10.002;2023-06-26T07:07:32;23.50;99.90
17346;DHT22;8790;53.590;10.002;2023-06-26T07:10:06;23.50;99.90
17346;DHT22;8790;53.590;10.002;2023-06-26T07:12:38;23.60;99.90
17346;DHT22;8790;53.590;10.002;2023-06-26T07:15:10;23.60;99.90
17346;DHT22;8790;53.590;10.002;2023-06-26T07:17:42;23.60;99.90
17346;DHT22;8790;53.590;10.002;2023-06-26T07:20:15;23.70;99.90
17346;DHT22;8790;53.590;10.002;2023-06-26T07:22:48;23.80;99.90
17346;DHT22;8790;53.590;10.002;2023-06-26T07:25:20;23.80;99.90
17346;DHT22;8790;53.590;10.002;2023-06-26T07:27:51;23.90;99.90
17346;DHT22;8790;53.590;10.002;2023-06-26T07:30:23;23.90;99.90
17346;DHT22;8790;53.590;10.002;2023-06-26T07:32:55;24.00;99.90
17346;DHT22;8790;53.590;10.002;2023-06-26T07:35:28;24.10;99.90
17346;DHT22;8790;53.590;10.002;2023-06-26T07:38:00;24.20;99.90
17346;DHT22;8790;53.590;10.002;2023-06-26T07:40:32;24.30;99.90
17346;DHT22;8790;53.590;10.002;2023-06-26T07:43:03;24.30;99.90
17346;DHT22;8790;53.590;10.002;2023-06-26T07:45:35;24.30;99.90
17346;DHT22;8790;53.590;10.002;2023-06-26T07:48:07;24.40;99.90
17346;DHT22;8790;53.590;10.002;2023-06-26T07:50:40;24.40;99.90
17346;DHT22;8790;53.590;10.002;2023-06-26T07:53:12;24.50;99.90
17346;DHT22;8790;53.590;10.002;2023-06-26T07:55:44;24.50;99.90
17346;DHT22;8790;53.590;10.002;2023-06-26T07:58:15;24.60;99.90
17346;DHT22;8790;53.590;10.002;2023-06-26T08:00:47;24.70;99.90
17346;DHT22;8790;53.590;10.002;2023-06-26T08:03:19;24.70;99.90
17346;DHT22;8790;53.590;10.002;2023-06-26T08:05:52;24.70;99.90
17346;DHT22;8790;53.590;10.002;2023-06-26T08:08:23;24.70;99.90
17346;DHT22;8790;53.590;10.002;2023-06-26T08:10:55;24.80;99.90
17346;DHT22;8790;53.590;10.002;2023-06-26T08:13:27;24.90;99.90
17346;DHT22;8790;53.590;10.002;2023-06-26T08:15:59;25.00;99.90
17346;DHT22;8790;53.590;10.002;2023-06-26T08:18:31;25.00;99.90
17346;DHT22;8790;53.590;10.002;2023-06-26T08:21:04;25.00;99.90
17346;DHT22;8790;53.590;10.002;2023-06-26T08:23:35;25.00;99.90
17346;DHT22;8790;53.590;10.002;2023-06-26T08:26:07;25.10;99.90
17346;DHT22;8790;53.590;10.002;2023-06-26T08:28:39;25.10;99.90
17346;DHT22;8790;53.590;10.002;2023-06-26T08:31:11;25.20;99.90
17346;DHT22;8790;53.590;10.002;2023-06-26T08:33:42;25.30;99.90
17346;DHT22;8790;53.590;10.002;2023-06-26T08:36:15;25.30;99.90
17346;DHT22;8790;53.590;10.002;2023-06-26T08:38:47;25.40;99.90
17346;DHT22;8790;53.590;10.002;2023-06-26T08:41:19;25.50;99.90
17346;DHT22;8790;53.590;10.002;2023-06-26T08:43:51;25.60;99.90
17346;DHT22;8790;53.590;10.002;2023-06-26T08:46:23;25.60;99.90
17346;DHT22;8790;53.590;10.002;2023-06-26T08:48:56;25.50;99.90
17346;DHT22;8790;53.590;10.002;2023-06-26T08:51:30;25.60;99.90
17346;DHT22;8790;53.590;10.002;2023-06-26T08:54:08;25.60;99.90
17346;DHT22;8790;53.590;10.002;2023-06-26T08:56:42;25.60;99.90
17346;DHT22;8790;53.590;10.002;2023-06-26T08:59:15;25.70;99.90
17346;DHT22;8790;53.590;10.002;2023-06-26T09:01:47;25.80;99.90
17346;DHT22;8790;53.590;10.002;2023-06-26T09:04:19;25.80;99.90
17346;DHT22;8790;53.590;10.002;2023-06-26T09:06:52;25.70;99.90
17346;DHT22;8790;53.590;10.002;2023-06-26T09:09:24;25.80;99.90
17346;DHT22;8790;53.590;10.002;2023-06-26T09:11:55;25.90;99.90
17346;DHT22;8790;53.590;10.002;2023-06-26T09:14:27;25.90;99.90
17346;DHT22;8790;53.590;10.002;2023-06-26T09:17:00;25.90;99.90
17346;DHT22;8790;53.590;10.002;2023-06-26T09:19:32;26.00;99.90
17346;DHT22;8790;53.590;10.002;2023-06-26T09:22:13;25.90;99.90
17346;DHT22;8790;53.590;10.002;2023-06-26T09:24:45;25.90;99.90
17346;DHT22;8790;53.590;10.002;2023-06-26T09:27:18;25.90;99.90
17346;DHT22;8790;53.590;10.002;2023-06-26T09:29:50;25.90;99.90
17346;DHT22;8790;53.590;10.002;2023-06-26T09:32:23;25.90;99.90
17346;DHT22;8790;53.590;10.002;2023-06-26T09:34:55;25.90;99.90
17346;DHT22;8790;53.590;10.002;2023-06-26T09:37:29;25.80;99.90
17346;DHT22;8790;53.590;10.002;2023-06-26T09:40:01;25.80;99.90
17346;DHT22;8790;53.590;10.002;2023-06-26T09:42:33;25.70;99.90
17346;DHT22;8790;53.590;10.002;2023-06-26T09:45:12;25.70;99.90
17346;DHT22;8790;53.590;10.002;2023-06-26T09:47:49;25.60;99.90
17346;DHT22;8790;53.590;10.002;2023-06-26T09:50:21;25.40;99.90
17346;DHT22;8790;53.590;10.002;2023-06-26T09:52:56;25.40;99.90
17346;DHT22;8790;53.590;10.002;2023-06-26T09:55:28;25.20;99.90
17346;DHT22;8790;53.590;10.002;2023-06-26T09:58:02;25.10;99.90
17346;DHT22;8790;53.590;10.002;2023-06-26T10:00:34;25.10;99.90
17346;DHT22;8790;53.590;10.002;2023-06-26T10:03:05;25.00;99.90
17346;DHT22;8790;53.590;10.002;2023-06-26T10:05:38;25.00;99.90
17346;DHT22;8790;53.590;10.002;2023-06-26T10:08:11;24.90;99.90
17346;DHT22;8790;53.590;10.002;2023-06-26T10:10:46;24.80;99.90
17346;DHT22;8790;53.590;10.002;2023-06-26T10:13:22;24.80;99.90
17346;DHT22;8790;53.590;10.002;2023-06-26T10:15:58;24.70;99.90
17346;DHT22;8790;53.590;10.002;2023-06-26T10:18:32;24.70;99.90
17346;DHT22;8790;53.590;10.002;2023-06-26T10:21:05;24.60;99.90
17346;DHT22;8790;53.590;10.002;2023-06-26T10:23:41;24.50;99.90
17346;DHT22;8790;53.590;10.002;2023-06-26T10:26:14;24.40;99.90
17346;DHT22;8790;53.590;10.002;2023-06-26T10:28:48;24.20;99.90
17346;DHT22;8790;53.590;10.002;2023-06-26T10:31:25;23.80;99.90
17346;DHT22;8790;53.590;10.002;2023-06-26T10:33:57;23.30;99.90
17346;DHT22;8790;53.590;10.002;2023-06-26T10:36:31;23.30;99.90
17346;DHT22;8790;53.590;10.002;2023-06-26T10:39:05;23.00;99.90
17346;DHT22;8790;53.590;10.002;2023-06-26T10:41:38;22.90;99.90
17346;DHT22;8790;53.590;10.002;2023-06-26T10:44:12;22.70;99.90
17346;DHT22;8790;53.590;10.002;2023-06-26T10:46:50;22.90;99.90
17346;DHT22;8790;53.590;10.002;2023-06-26T10:49:25;22.90;99.90
17346;DHT22;8790;53.590;10.002;2023-06-26T10:52:01;22.70;99.90
17346;DHT22;8790;53.590;10.002;2023-06-26T10:54:34;22.60;99.90
17346;DHT22;8790;53.590;10.002;2023-06-26T10:57:07;22.50;99.90
17346;DHT22;8790;53.590;10.002;2023-06-26T10:59:40;22.60;99.90
17346;DHT22;8790;53.590;10.002;2023-06-26T11:02:12;22.50;99.90
17346;DHT22;8790;53.590;10.002;2023-06-26T11:04:45;22.40;99.90
17346;DHT22;8790;53.590;10.002;2023-06-26T11:07:19;22.60;99.90
17346;DHT22;8790;53.590;10.002;2023-06-26T11:09:56;22.60;99.90
17346;DHT22;8790;53.590;10.002;2023-06-26T11:12:36;22.50;99.90
17346;DHT22;8790;53.590;10.002;2023-06-26T11:15:09;22.60;99.90
17346;DHT22;8790;53.590;10.002;2023-06-26T11:17:42;22.70;99.90
17346;DHT22;8790;53.590;10.002;2023-06-26T11:20:15;22.80;99.90
17346;DHT22;8790;53.590;10.002;2023-06-26T11:22:52;22.80;99.90
17346;DHT22;8790;53.590;10.002;2023-06-26T11:25:25;22.80;99.90
17346;DHT22;8790;53.590;10.002;2023-06-26T11:27:57;22.80;99.90
17346;DHT22;8790;53.590;10.002;2023-06-26T11:30:29;22.80;99.90
17346;DHT22;8790;53.590;10.002;2023-06-26T11:33:04;22.80;99.90
17346;DHT22;8790;53.590;10.002;2023-06-26T11:35:36;22.80;99.90
17346;DHT22;8790;53.590;10.002;2023-06-26T11:38:09;22.80;99.90
17346;DHT22;8790;53.590;10.002;2023-06-26T11:40:42;22.80;99.90
17346;DHT22;8790;53.590;10.002;2023-06-26T11:43:14;22.70;99.90
17346;DHT22;8790;53.590;10.002;2023-06-26T11:45:49;22.60;99.90
17346;DHT22;8790;53.590;10.002;2023-06-26T11:48:25;22.60;99.90
17346;DHT22;8790;53.590;10.002;2023-06-26T11:50:57;22.70;99.90
17346;DHT22;8790;53.590;10.002;2023-06-26T11:53:28;22.90;99.90
17346;DHT22;8790;53.590;10.002;2023-06-26T11:56:07;23.00;99.90
17346;DHT22;8790;53.590;10.002;2023-06-26T11:58:57;23.00;99.90
17346;DHT22;8790;53.590;10.002;2023-06-26T12:01:32;23.10;99.90
17346;DHT22;8790;53.590;10.002;2023-06-26T12:04:06;23.10;99.90
17346;DHT22;8790;53.590;10.002;2023-06-26T12:06:39;22.90;99.90
17346;DHT22;8790;53.590;10.002;2023-06-26T12:09:12;22.80;99.90
17346;DHT22;8790;53.590;10.002;2023-06-26T12:11:47;22.70;99.90
17346;DHT22;8790;53.590;10.002;2023-06-26T12:14:20;22.80;99.90
17346;DHT22;8790;53.590;10.002;2023-06-26T12:16:53;22.70;99.90
17346;DHT22;8790;53.590;10.002;2023-06-26T12:19:26;22.70;99.90
17346;DHT22;8790;53.590;10.002;2023-06-26T12:21:58;23.00;99.90
17346;DHT22;8790;53.590;10.002;2023-06-26T12:24:30;23.20;99.90
17346;DHT22;8790;53.590;10.002;2023-06-26T12:27:08;23.30;99.90
17346;DHT22;8790;53.590;10.002;2023-06-26T12:29:41;23.40;99.90
17346;DHT22;8790;53.590;10.002;2023-06-26T12:32:13;23.60;99.90
17346;DHT22;8790;53.590;10.002;2023-06-26T12:34:48;23.70;99.90
17346;DHT22;8790;53.590;10.002;2023-06-26T12:37:20;23.60;99.90
17346;DHT22;8790;53.590;10.002;2023-06-26T12:39:53;23.60;99.90
17346;DHT22;8790;53.590;10.002;2023-06-26T12:42:27;23.50;99.90
17346;DHT22;8790;53.590;10.002;2023-06-26T12:44:59;23.30;99.90
17346;DHT22;8790;53.590;10.002;2023-06-26T12:47:41;23.30;99.90
17346;DHT22;8790;53.590;10.002;2023-06-26T12:50:13;23.40;99.90
17346;DHT22;8790;53.590;10.002;2023-06-26T12:52:45;23.40;99.90
17346;DHT22;8790;53.590;10.002;2023-06-26T12:55:16;23.30;99.90
17346;DHT22;8790;53.590;10.002;2023-06-26T12:57:49;23.30;99.90
17346;DHT22;8790;53.590;10.002;2023-06-26T13:00:22;23.20;99.90
17346;DHT22;8790;53.590;10.002;2023-06-26T13:02:54;23.20;99.90
17346;DHT22;8790;53.590;10.002;2023-06-26T13:05:25;23.20;99.90
17346;DHT22;8790;53.590;10.002;2023-06-26T13:07:57;23.20;99.90
17346;DHT22;8790;53.590;10.002;2023-06-26T13:10:30;23.30;99.90
17346;DHT22;8790;53.590;10.002;2023-06-26T13:13:03;23.30;99.90
17346;DHT22;8790;53.590;10.002;2023-06-26T13:15:35;23.30;99.90
17346;DHT22;8790;53.590;10.002;2023-06-26T13:18:06;23.30;99.90
17346;DHT22;8790;53.590;10.002;2023-06-26T13:20:38;23.30;99.90
17346;DHT22;8790;53.590;10.002;2023-06-26T13:23:10;23.40;99.90
17346;DHT22;8790;53.590;10.002;2023-06-26T13:25:41;23.50;99.90
17346;DHT22;8790;53.590;10.002;2023-06-26T13:28:15;23.50;99.90
17346;DHT22;8790;53.590;10.002;2023-06-26T13:30:46;23.50;99.90
17346;DHT22;8790;53.590;10.002;2023-06-26T13:33:18;23.60;99.90
17346;DHT22;8790;53.590;10.002;2023-06-26T13:35:50;23.50;99.90
17346;DHT22;8790;53.590;10.002;2023-06-26T13:38:22;23.50;99.90
17346;DHT22;8790;53.590;10.002;2023-06-26T13:40:55;23.50;99.90
17346;DHT22;8790;53.590;10.002;2023-06-26T13:43:29;23.50;99.90
17346;DHT22;8790;53.590;10.002;2023-06-26T13:46:01;23.50;99.90
17346;DHT22;8790;53.590;10.002;2023-06-26T13:48:33;23.60;99.90
17346;DHT22;8790;53.590;10.002;2023-06-26T13:51:04;23.50;99.90
17346;DHT22;8790;53.590;10.002;2023-06-26T13:53:36;23.40;99.90
17346;DHT22;8790;53.590;10.002;2023-06-26T13:56:08;23.50;99.90
17346;DHT22;8790;53.590;10.002;2023-06-26T13:58:41;23.50;99.90
17346;DHT22;8790;53.590;10.002;2023-06-26T14:01:13;23.40;99.90
17346;DHT22;8790;53.590;10.002;2023-06-26T14:03:44;23.50;99.90
17346;DHT22;8790;53.590;10.002;2023-06-26T14:06:16;23.40;99.90
17346;DHT22;8790;53.590;10.002;2023-06-26T14:08:48;23.40;99.90
17346;DHT22;8790;53.590;10.002;2023-06-26T14:11:19;23.30;99.90
17346;DHT22;8790;53.590;10.002;2023-06-26T14:13:54;23.30;99.90
17346;DHT22;8790;53.590;10.002;2023-06-26T14:16:26;23.50;99.90
17346;DHT22;8790;53.590;10.002;2023-06-26T14:18:59;23.50;99.90
17346;DHT22;8790;53.590;10.002;2023-06-26T14:21:30;23.40;99.90
17346;DHT22;8790;53.590;10.002;2023-06-26T14:24:03;23.30;99.90
17346;DHT22;8790;53.590;10.002;2023-06-26T14:26:35;23.30;99.90
17346;DHT22;8790;53.590;10.002;2023-06-26T14:29:08;23.30;99.90
17346;DHT22;8790;53.590;10.002;2023-06-26T14:31:40;23.30;99.90
17346;DHT22;8790;53.590;10.002;2023-06-26T14:34:12;23.40;99.90
17346;DHT22;8790;53.590;10.002;2023-06-26T14:36:44;23.40;99.90
17346;DHT22;8790;53.590;10.002;2023-06-26T14:39:16;23.50;99.90
17346;DHT22;8790;53.590;10.002;2023-06-26T14:41:47;23.30;99.90
17346;DHT22;8790;53.590;10.002;2023-06-26T14:44:21;23.30;99.90
17346;DHT22;8790;53.590;10.002;2023-06-26T14:46:53;23.50;99.90
17346;DHT22;8790;53.590;10.002;2023-06-26T14:49:25;23.60;99.90
17346;DHT22;8790;53.590;10.002;2023-06-26T14:51:56;23.80;99.90
17346;DHT22;8790;53.590;10.002;2023-06-26T14:54:28;23.80;99.90
17346;DHT22;8790;53.590;10.002;2023-06-26T14:57:00;23.70;99.90
17346;DHT22;8790;53.590;10.002;2023-06-26T14:59:33;23.80;99.90
17346;DHT22;8790;53.590;10.002;2023-06-26T15:02:06;23.60;99.90
17346;DHT22;8790;53.590;10.002;2023-06-26T15:04:38;23.60;99.90
17346;DHT22;8790;53.590;10.002;2023-06-26T15:07:09;23.60;99.90
17346;DHT22;8790;53.590;10.002;2023-06-26T15:09:41;23.30;99.90
17346;DHT22;8790;53.590;10.002;2023-06-26T15:12:13;23.20;99.90
17346;DHT22;8790;53.590;10.002;2023-06-26T15:14:46;23.10;99.90
17346;DHT22;8790;53.590;10.002;2023-06-26T15:17:18;23.10;99.90
17346;DHT22;8790;53.590;10.002;2023-06-26T15:19:50;23.10;99.90
17346;DHT22;8790;53.590;10.002;2023-06-26T15:22:22;23.00;99.90
17346;DHT22;8790;53.590;10.002;2023-06-26T15:24:57;23.00;99.90
17346;DHT22;8790;53.590;10.002;2023-06-26T15:27:28;23.00;99.90
17346;DHT22;8790;53.590;10.002;2023-06-26T15:30:02;22.90;99.90
17346;DHT22;8790;53.590;10.002;2023-06-26T15:32:34;22.90;99.90
17346;DHT22;8790;53.590;10.002;2023-06-26T15:35:07;22.80;99.90
17346;DHT22;8790;53.590;10.002;2023-06-26T15:37:39;22.70;99.90
17346;DHT22;8790;53.590;10.002;2023-06-26T15:40:12;22.70;99.90
17346;DHT22;8790;53.590;10.002;2023-06-26T15:42:48;22.70;99.90
17346;DHT22;8790;53.590;10.002;2023-06-26T15:45:22;22.60;99.90
17346;DHT22;8790;53.590;10.002;2023-06-26T15:47:56;22.70;99.90
17346;DHT22;8790;53.590;10.002;2023-06-26T15:50:28;22.70;99.90
17346;DHT22;8790;53.590;10.002;2023-06-26T15:53:02;22.70;99.90
17346;DHT22;8790;53.590;10.002;2023-06-26T15:55:34;22.60;99.90
17346;DHT22;8790;53.590;10.002;2023-06-26T15:58:06;22.30;99.90
17346;DHT22;8790;53.590;10.002;2023-06-26T16:00:39;22.30;99.90
17346;DHT22;8790;53.590;10.002;2023-06-26T16:03:11;22.30;99.90
17346;DHT22;8790;53.590;10.002;2023-06-26T16:05:43;22.40;99.90